sensor_id;sensor_type;location;lat;lon;timestamp;P1;durP1;ratioP1;P2;durP2;ratioP2
75537;SDS011;64121;48.666;8.114;2023-04-08T00:00:52;6.65;;;5.68;;
75537;SDS011;64121;48.666;8.114;2023-04-08T00:03:17;6.68;;;5.47;;
75537;SDS011;64121;48.666;8.114;2023-04-08T00:05:43;8.25;;;6.05;;
75537;SDS011;64121;48.666;8.114;2023-04-08T00:08:09;7.22;;;5.50;;
75537;SDS011;64121;48.666;8.114;2023-04-08T00:10:36;7.63;;;5.53;;
75537;SDS011;64121;48.666;8.114;2023-04-08T00:13:01;7.47;;;6.22;;
75537;SDS011;64121;48.666;8.114;2023-04-08T00:15:27;6.50;;;5.80;;
75537;SDS011;64121;48.666;8.114;2023-04-08T00:17:52;6.55;;;5.30;;
75537;SDS011;64121;48.666;8.114;2023-04-08T00:20:18;6.30;;;5.50;;
75537;SDS011;64121;48.666;8.114;2023-04-08T00:22:43;6.78;;;5.82;;
75537;SDS011;64121;48.666;8.114;2023-04-08T00:25:09;8.07;;;6.35;;
75537;SDS011;64121;48.666;8.114;2023-04-08T00:27:36;7.78;;;5.88;;
75537;SDS011;64121;48.666;8.114;2023-04-08T00:30:01;11.43;;;6.20;;
75537;SDS011;64121;48.666;8.114;2023-04-08T00:32:27;7.78;;;5.85;;
75537;SDS011;64121;48.666;8.114;2023-04-08T00:34:52;7.68;;;5.97;;
75537;SDS011;64121;48.666;8.114;2023-04-08T00:37:18;7.20;;;5.75;;
75537;SDS011;64121;48.666;8.114;2023-04-08T00:39:44;7.32;;;5.55;;
75537;SDS011;64121;48.666;8.114;2023-04-08T00:42:09;7.05;;;5.90;;
75537;SDS011;64121;48.666;8.114;2023-04-08T00:44:36;8.32;;;6.30;;
75537;SDS011;64121;48.666;8.114;2023-04-08T00:47:02;7.72;;;5.97;;
75537;SDS011;64121;48.666;8.114;2023-04-08T00:49:28;8.55;;;6.10;;
75537;SDS011;64121;48.666;8.114;2023-04-08T00:51:54;8.05;;;5.80;;
75537;SDS011;64121;48.666;8.114;2023-04-08T00:54:20;8.35;;;6.40;;
75537;SDS011;64121;48.666;8.114;2023-04-08T00:56:45;7.45;;;6.00;;
75537;SDS011;64121;48.666;8.114;2023-04-08T00:59:11;6.47;;;5.78;;
75537;SDS011;64121;48.666;8.114;2023-04-08T01:01:40;7.80;;;6.00;;
75537;SDS011;64121;48.666;8.114;2023-04-08T01:04:09;7.57;;;6.32;;
75537;SDS011;64121;48.666;8.114;2023-04-08T01:06:43;9.15;;;6.50;;
75537;SDS011;64121;48.666;8.114;2023-04-08T01:09:13;8.07;;;5.78;;
75537;SDS011;64121;48.666;8.114;2023-04-08T01:11:43;7.47;;;5.88;;
75537;SDS011;64121;48.666;8.114;2023-04-08T01:14:14;8.32;;;6.40;;
75537;SDS011;64121;48.666;8.114;2023-04-08T01:16:45;7.57;;;6.28;;
75537;SDS011;64121;48.666;8.114;2023-04-08T01:19:23;7.35;;;6.05;;
75537;SDS011;64121;48.666;8.114;2023-04-08T01:21:51;7.75;;;6.43;;
75537;SDS011;64121;48.666;8.114;2023-04-08T01:24:19;7.95;;;6.95;;
75537;SDS011;64121;48.666;8.114;2023-04-08T01:26:51;8.60;;;6.40;;
75537;SDS011;64121;48.666;8.114;2023-04-08T01:29:17;8.02;;;5.82;;
75537;SDS011;64121;48.666;8.114;2023-04-08T01:31:43;8.13;;;6.07;;
75537;SDS011;64121;48.666;8.114;2023-04-08T01:34:11;8.60;;;6.18;;
75537;SDS011;64121;48.666;8.114;2023-04-08T01:36:39;7.15;;;5.85;;
75537;SDS011;64121;48.666;8.114;2023-04-08T01:39:08;8.30;;;6.63;;
75537;SDS011;64121;48.666;8.114;2023-04-08T01:41:34;8.32;;;6.03;;
75537;SDS011;64121;48.666;8.114;2023-04-08T01:44:02;8.55;;;5.55;;
75537;SDS011;64121;48.666;8.114;2023-04-08T01:46:29;7.47;;;5.75;;
75537;SDS011;64121;48.666;8.114;2023-04-08T01:48:56;6.93;;;5.82;;
75537;SDS011;64121;48.666;8.114;2023-04-08T01:51:23;7.55;;;6.10;;
75537;SDS011;64121;48.666;8.114;2023-04-08T01:53:50;8.13;;;6.88;;
75537;SDS011;64121;48.666;8.114;2023-04-08T01:56:18;9.80;;;6.57;;
75537;SDS011;64121;48.666;8.114;2023-04-08T01:58:47;9.07;;;7.03;;
75537;SDS011;64121;48.666;8.114;2023-04-08T02:01:19;8.63;;;6.53;;
75537;SDS011;64121;48.666;8.114;2023-04-08T02:03:46;8.45;;;6.60;;
75537;SDS011;64121;48.666;8.114;2023-04-08T02:06:13;7.90;;;6.78;;
75537;SDS011;64121;48.666;8.114;2023-04-08T02:08:39;8.38;;;7.18;;
75537;SDS011;64121;48.666;8.114;2023-04-08T02:11:05;10.02;;;6.78;;
75537;SDS011;64121;48.666;8.114;2023-04-08T02:13:31;9.05;;;7.32;;
75537;SDS011;64121;48.666;8.114;2023-04-08T02:16:00;7.70;;;6.18;;
75537;SDS011;64121;48.666;8.114;2023-04-08T02:18:32;9.75;;;7.15;;
75537;SDS011;64121;48.666;8.114;2023-04-08T02:21:01;10.18;;;6.95;;
75537;SDS011;64121;48.666;8.114;2023-04-08T02:23:33;8.45;;;7.10;;
75537;SDS011;64121;48.666;8.114;2023-04-08T02:26:02;9.93;;;7.07;;
75537;SDS011;64121;48.666;8.114;2023-04-08T02:28:31;8.30;;;6.30;;
75537;SDS011;64121;48.666;8.114;2023-04-08T02:30:59;9.35;;;6.63;;
75537;SDS011;64121;48.666;8.114;2023-04-08T02:33:26;9.10;;;6.93;;
75537;SDS011;64121;48.666;8.114;2023-04-08T02:35:55;8.38;;;6.32;;
75537;SDS011;64121;48.666;8.114;2023-04-08T02:38:21;7.80;;;6.47;;
75537;SDS011;64121;48.666;8.114;2023-04-08T02:40:48;7.70;;;6.03;;
75537;SDS011;64121;48.666;8.114;2023-04-08T02:43:14;8.48;;;6.70;;
75537;SDS011;64121;48.666;8.114;2023-04-08T02:45:40;10.80;;;6.35;;
75537;SDS011;64121;48.666;8.114;2023-04-08T02:48:06;8.02;;;6.13;;
75537;SDS011;64121;48.666;8.114;2023-04-08T02:50:32;7.82;;;6.25;;
75537;SDS011;64121;48.666;8.114;2023-04-08T02:52:59;8.57;;;7.15;;
75537;SDS011;64121;48.666;8.114;2023-04-08T02:55:24;8.27;;;6.60;;
75537;SDS011;64121;48.666;8.114;2023-04-08T02:57:50;7.80;;;6.90;;
75537;SDS011;64121;48.666;8.114;2023-04-08T03:00:15;6.75;;;6.05;;
75537;SDS011;64121;48.666;8.114;2023-04-08T03:02:41;8.55;;;7.05;;
75537;SDS011;64121;48.666;8.114;2023-04-08T03:05:07;9.93;;;7.10;;
75537;SDS011;64121;48.666;8.114;2023-04-08T03:07:33;10.38;;;6.97;;
75537;SDS011;64121;48.666;8.114;2023-04-08T03:09:59;9.52;;;7.20;;
75537;SDS011;64121;48.666;8.114;2023-04-08T03:12:25;9.43;;;6.85;;
75537;SDS011;64121;48.666;8.114;2023-04-08T03:14:51;9.13;;;7.40;;
75537;SDS011;64121;48.666;8.114;2023-04-08T03:17:16;7.03;;;6.10;;
75537;SDS011;64121;48.666;8.114;2023-04-08T03:19:41;7.45;;;6.13;;
75537;SDS011;64121;48.666;8.114;2023-04-08T03:22:07;6.90;;;6.07;;
75537;SDS011;64121;48.666;8.114;2023-04-08T03:24:32;8.10;;;6.40;;
75537;SDS011;64121;48.666;8.114;2023-04-08T03:26:59;8.68;;;6.38;;
75537;SDS011;64121;48.666;8.114;2023-04-08T03:29:25;7.60;;;6.13;;
75537;SDS011;64121;48.666;8.114;2023-04-08T03:31:50;8.10;;;6.32;;
75537;SDS011;64121;48.666;8.114;2023-04-08T03:34:15;8.27;;;6.47;;
75537;SDS011;64121;48.666;8.114;2023-04-08T03:36:41;7.70;;;5.55;;
75537;SDS011;64121;48.666;8.114;2023-04-08T03:39:06;7.90;;;6.53;;
75537;SDS011;64121;48.666;8.114;2023-04-08T03:41:32;6.53;;;5.65;;
75537;SDS011;64121;48.666;8.114;2023-04-08T03:43:59;7.45;;;6.10;;
75537;SDS011;64121;48.666;8.114;2023-04-08T03:46:24;7.95;;;5.93;;
75537;SDS011;64121;48.666;8.114;2023-04-08T03:48:50;7.88;;;5.90;;
75537;SDS011;64121;48.666;8.114;2023-04-08T03:51:15;7.90;;;6.72;;
75537;SDS011;64121;48.666;8.114;2023-04-08T03:53:41;6.65;;;5.55;;
75537;SDS011;64121;48.666;8.114;2023-04-08T03:56:06;8.57;;;6.85;;
75537;SDS011;64121;48.666;8.114;2023-04-08T03:58:32;7.88;;;6.00;;
75537;SDS011;64121;48.666;8.114;2023-04-08T04:00:59;6.90;;;6.05;;
75537;SDS011;64121;48.666;8.114;2023-04-08T04:03:24;9.30;;;6.50;;
75537;SDS011;64121;48.666;8.114;2023-04-08T04:05:50;7.55;;;6.55;;
75537;SDS011;64121;48.666;8.114;2023-04-08T04:08:15;9.73;;;6.55;;
75537;SDS011;64121;48.666;8.114;2023-04-08T04:10:41;8.18;;;6.43;;
75537;SDS011;64121;48.666;8.114;2023-04-08T04:13:06;9.75;;;6.70;;
75537;SDS011;64121;48.666;8.114;2023-04-08T04:15:32;9.00;;;6.35;;
75537;SDS011;64121;48.666;8.114;2023-04-08T04:17:59;6.47;;;5.78;;
75537;SDS011;64121;48.666;8.114;2023-04-08T04:20:24;8.10;;;6.57;;
75537;SDS011;64121;48.666;8.114;2023-04-08T04:22:50;7.47;;;6.60;;
75537;SDS011;64121;48.666;8.114;2023-04-08T04:25:15;8.93;;;7.15;;
75537;SDS011;64121;48.666;8.114;2023-04-08T04:27:41;9.02;;;6.88;;
75537;SDS011;64121;48.666;8.114;2023-04-08T04:30:07;8.13;;;6.82;;
75537;SDS011;64121;48.666;8.114;2023-04-08T04:32:32;8.40;;;6.45;;
75537;SDS011;64121;48.666;8.114;2023-04-08T04:35:00;8.40;;;6.30;;
75537;SDS011;64121;48.666;8.114;2023-04-08T04:37:25;10.45;;;7.22;;
75537;SDS011;64121;48.666;8.114;2023-04-08T04:39:51;9.30;;;6.97;;
75537;SDS011;64121;48.666;8.114;2023-04-08T04:42:16;9.13;;;6.80;;
75537;SDS011;64121;48.666;8.114;2023-04-08T04:44:41;9.77;;;7.25;;
75537;SDS011;64121;48.666;8.114;2023-04-08T04:47:07;9.20;;;6.57;;
75537;SDS011;64121;48.666;8.114;2023-04-08T04:49:32;7.95;;;6.57;;
75537;SDS011;64121;48.666;8.114;2023-04-08T04:51:59;9.57;;;6.72;;
75537;SDS011;64121;48.666;8.114;2023-04-08T04:54:25;8.25;;;7.30;;
75537;SDS011;64121;48.666;8.114;2023-04-08T04:56:50;9.15;;;6.82;;
75537;SDS011;64121;48.666;8.114;2023-04-08T04:59:16;8.55;;;6.80;;
75537;SDS011;64121;48.666;8.114;2023-04-08T05:01:41;8.90;;;6.88;;
75537;SDS011;64121;48.666;8.114;2023-04-08T05:04:07;8.25;;;6.82;;
75537;SDS011;64121;48.666;8.114;2023-04-08T05:06:32;8.65;;;6.88;;
75537;SDS011;64121;48.666;8.114;2023-04-08T05:08:59;9.70;;;6.90;;
75537;SDS011;64121;48.666;8.114;2023-04-08T05:11:24;9.52;;;6.78;;
75537;SDS011;64121;48.666;8.114;2023-04-08T05:13:50;7.93;;;6.53;;
75537;SDS011;64121;48.666;8.114;2023-04-08T05:16:15;8.55;;;7.07;;
75537;SDS011;64121;48.666;8.114;2023-04-08T05:18:41;9.65;;;7.00;;
75537;SDS011;64121;48.666;8.114;2023-04-08T05:21:07;8.48;;;6.15;;
75537;SDS011;64121;48.666;8.114;2023-04-08T05:23:33;8.13;;;6.55;;
75537;SDS011;64121;48.666;8.114;2023-04-08T05:26:00;9.23;;;7.85;;
75537;SDS011;64121;48.666;8.114;2023-04-08T05:28:26;10.00;;;7.97;;
75537;SDS011;64121;48.666;8.114;2023-04-08T05:30:51;9.93;;;7.50;;
75537;SDS011;64121;48.666;8.114;2023-04-08T05:33:17;8.77;;;7.05;;
75537;SDS011;64121;48.666;8.114;2023-04-08T05:35:43;9.07;;;6.20;;
75537;SDS011;64121;48.666;8.114;2023-04-08T05:38:10;9.73;;;7.75;;
75537;SDS011;64121;48.666;8.114;2023-04-08T05:40:36;8.45;;;6.97;;
75537;SDS011;64121;48.666;8.114;2023-04-08T05:43:03;9.77;;;7.00;;
75537;SDS011;64121;48.666;8.114;2023-04-08T05:45:28;9.57;;;7.72;;
75537;SDS011;64121;48.666;8.114;2023-04-08T05:47:54;8.85;;;7.30;;
75537;SDS011;64121;48.666;8.114;2023-04-08T05:50:21;8.73;;;7.45;;
75537;SDS011;64121;48.666;8.114;2023-04-08T05:52:46;10.38;;;7.50;;
75537;SDS011;64121;48.666;8.114;2023-04-08T05:55:12;9.57;;;8.18;;
75537;SDS011;64121;48.666;8.114;2023-04-08T05:57:38;10.57;;;8.18;;
75537;SDS011;64121;48.666;8.114;2023-04-08T06:00:06;10.88;;;8.27;;
75537;SDS011;64121;48.666;8.114;2023-04-08T06:02:33;9.52;;;7.70;;
75537;SDS011;64121;48.666;8.114;2023-04-08T06:04:59;9.50;;;8.50;;
75537;SDS011;64121;48.666;8.114;2023-04-08T06:07:24;9.55;;;7.82;;
75537;SDS011;64121;48.666;8.114;2023-04-08T06:09:50;10.27;;;8.40;;
75537;SDS011;64121;48.666;8.114;2023-04-08T06:12:16;11.38;;;7.97;;
75537;SDS011;64121;48.666;8.114;2023-04-08T06:14:41;10.07;;;7.78;;
75537;SDS011;64121;48.666;8.114;2023-04-08T06:17:08;8.30;;;7.25;;
75537;SDS011;64121;48.666;8.114;2023-04-08T06:19:34;8.45;;;7.03;;
75537;SDS011;64121;48.666;8.114;2023-04-08T06:21:59;9.45;;;7.97;;
75537;SDS011;64121;48.666;8.114;2023-04-08T06:24:25;8.60;;;7.32;;
75537;SDS011;64121;48.666;8.114;2023-04-08T06:26:50;9.27;;;7.45;;
75537;SDS011;64121;48.666;8.114;2023-04-08T06:29:16;9.68;;;7.82;;
75537;SDS011;64121;48.666;8.114;2023-04-08T06:31:41;10.32;;;8.15;;
75537;SDS011;64121;48.666;8.114;2023-04-08T06:34:08;9.38;;;8.07;;
75537;SDS011;64121;48.666;8.114;2023-04-08T06:36:34;8.63;;;7.72;;
75537;SDS011;64121;48.666;8.114;2023-04-08T06:38:59;11.00;;;8.80;;
75537;SDS011;64121;48.666;8.114;2023-04-08T06:41:25;9.48;;;7.03;;
75537;SDS011;64121;48.666;8.114;2023-04-08T06:43:50;7.55;;;6.75;;
75537;SDS011;64121;48.666;8.114;2023-04-08T06:46:16;8.88;;;7.00;;
75537;SDS011;64121;48.666;8.114;2023-04-08T06:48:42;7.90;;;6.63;;
75537;SDS011;64121;48.666;8.114;2023-04-08T06:51:08;9.40;;;7.63;;
75537;SDS011;64121;48.666;8.114;2023-04-08T06:53:34;9.32;;;7.15;;
75537;SDS011;64121;48.666;8.114;2023-04-08T06:55:59;9.30;;;7.32;;
75537;SDS011;64121;48.666;8.114;2023-04-08T06:58:25;8.95;;;7.18;;
75537;SDS011;64121;48.666;8.114;2023-04-08T07:00:52;9.57;;;7.40;;
75537;SDS011;64121;48.666;8.114;2023-04-08T07:03:17;8.45;;;6.65;;
75537;SDS011;64121;48.666;8.114;2023-04-08T07:05:43;9.20;;;7.45;;
75537;SDS011;64121;48.666;8.114;2023-04-08T07:08:10;9.50;;;7.20;;
75537;SDS011;64121;48.666;8.114;2023-04-08T07:10:36;11.43;;;7.43;;
75537;SDS011;64121;48.666;8.114;2023-04-08T07:13:02;8.70;;;6.85;;
75537;SDS011;64121;48.666;8.114;2023-04-08T07:15:28;10.48;;;7.97;;
75537;SDS011;64121;48.666;8.114;2023-04-08T07:17:53;9.27;;;6.93;;
75537;SDS011;64121;48.666;8.114;2023-04-08T07:20:19;10.27;;;7.53;;
75537;SDS011;64121;48.666;8.114;2023-04-08T07:22:45;9.90;;;7.82;;
75537;SDS011;64121;48.666;8.114;2023-04-08T07:25:12;8.88;;;7.43;;
75537;SDS011;64121;48.666;8.114;2023-04-08T07:27:38;11.70;;;8.00;;
75537;SDS011;64121;48.666;8.114;2023-04-08T07:30:04;9.32;;;7.72;;
75537;SDS011;64121;48.666;8.114;2023-04-08T07:32:31;8.48;;;7.28;;
75537;SDS011;64121;48.666;8.114;2023-04-08T07:34:57;8.95;;;7.43;;
75537;SDS011;64121;48.666;8.114;2023-04-08T07:37:23;10.70;;;8.07;;
75537;SDS011;64121;48.666;8.114;2023-04-08T07:39:48;10.82;;;7.82;;
75537;SDS011;64121;48.666;8.114;2023-04-08T07:42:15;9.63;;;7.85;;
75537;SDS011;64121;48.666;8.114;2023-04-08T07:44:41;10.05;;;8.23;;
75537;SDS011;64121;48.666;8.114;2023-04-08T07:47:10;10.10;;;8.25;;
75537;SDS011;64121;48.666;8.114;2023-04-08T07:49:35;11.02;;;7.88;;
75537;SDS011;64121;48.666;8.114;2023-04-08T07:52:02;10.43;;;7.60;;
75537;SDS011;64121;48.666;8.114;2023-04-08T07:54:29;11.32;;;9.57;;
75537;SDS011;64121;48.666;8.114;2023-04-08T07:56:56;12.20;;;9.32;;
75537;SDS011;64121;48.666;8.114;2023-04-08T07:59:23;10.60;;;8.70;;
75537;SDS011;64121;48.666;8.114;2023-04-08T08:01:49;12.98;;;9.88;;
75537;SDS011;64121;48.666;8.114;2023-04-08T08:04:15;11.55;;;8.38;;
75537;SDS011;64121;48.666;8.114;2023-04-08T08:06:41;9.70;;;7.82;;
75537;SDS011;64121;48.666;8.114;2023-04-08T08:09:07;11.27;;;8.15;;
75537;SDS011;64121;48.666;8.114;2023-04-08T08:11:32;10.73;;;8.27;;
75537;SDS011;64121;48.666;8.114;2023-04-08T08:13:58;10.48;;;8.30;;
75537;SDS011;64121;48.666;8.114;2023-04-08T08:16:27;10.68;;;7.93;;
75537;SDS011;64121;48.666;8.114;2023-04-08T08:18:54;11.23;;;8.10;;
75537;SDS011;64121;48.666;8.114;2023-04-08T08:21:21;10.30;;;8.05;;
75537;SDS011;64121;48.666;8.114;2023-04-08T08:23:47;9.52;;;6.93;;
75537;SDS011;64121;48.666;8.114;2023-04-08T08:26:12;10.85;;;8.23;;
75537;SDS011;64121;48.666;8.114;2023-04-08T08:28:38;10.50;;;8.15;;
75537;SDS011;64121;48.666;8.114;2023-04-08T08:31:04;10.63;;;7.90;;
75537;SDS011;64121;48.666;8.114;2023-04-08T08:33:31;11.60;;;8.43;;
75537;SDS011;64121;48.666;8.114;2023-04-08T08:35:57;10.35;;;8.48;;
75537;SDS011;64121;48.666;8.114;2023-04-08T08:38:22;11.27;;;8.45;;
75537;SDS011;64121;48.666;8.114;2023-04-08T08:40:52;9.73;;;7.25;;
75537;SDS011;64121;48.666;8.114;2023-04-08T08:43:18;9.68;;;6.50;;
75537;SDS011;64121;48.666;8.114;2023-04-08T08:45:43;10.48;;;6.53;;
75537;SDS011;64121;48.666;8.114;2023-04-08T08:48:08;8.63;;;6.00;;
75537;SDS011;64121;48.666;8.114;2023-04-08T08:50:38;9.98;;;6.57;;
75537;SDS011;64121;48.666;8.114;2023-04-08T08:53:04;8.60;;;6.82;;
75537;SDS011;64121;48.666;8.114;2023-04-08T08:55:30;8.63;;;5.88;;
75537;SDS011;64121;48.666;8.114;2023-04-08T08:57:57;6.43;;;5.03;;
75537;SDS011;64121;48.666;8.114;2023-04-08T09:00:30;7.28;;;4.85;;
75537;SDS011;64121;48.666;8.114;2023-04-08T09:03:12;7.95;;;5.72;;
75537;SDS011;64121;48.666;8.114;2023-04-08T09:05:47;9.52;;;6.65;;
75537;SDS011;64121;48.666;8.114;2023-04-08T09:08:24;9.60;;;7.00;;
75537;SDS011;64121;48.666;8.114;2023-04-08T09:10:54;10.35;;;7.05;;
75537;SDS011;64121;48.666;8.114;2023-04-08T09:13:20;11.73;;;8.07;;
75537;SDS011;64121;48.666;8.114;2023-04-08T09:15:59;12.25;;;7.90;;
75537;SDS011;64121;48.666;8.114;2023-04-08T09:18:26;11.02;;;7.70;;
75537;SDS011;64121;48.666;8.114;2023-04-08T09:20:52;12.90;;;8.05;;
75537;SDS011;64121;48.666;8.114;2023-04-08T09:23:18;11.98;;;8.20;;
75537;SDS011;64121;48.666;8.114;2023-04-08T09:25:43;10.75;;;8.55;;
75537;SDS011;64121;48.666;8.114;2023-04-08T09:28:17;10.10;;;7.75;;
75537;SDS011;64121;48.666;8.114;2023-04-08T09:30:45;10.73;;;7.60;;
75537;SDS011;64121;48.666;8.114;2023-04-08T09:33:14;10.23;;;8.40;;
75537;SDS011;64121;48.666;8.114;2023-04-08T09:35:40;10.50;;;7.60;;
75537;SDS011;64121;48.666;8.114;2023-04-08T09:38:11;11.50;;;8.38;;
75537;SDS011;64121;48.666;8.114;2023-04-08T09:40:37;11.65;;;8.82;;
75537;SDS011;64121;48.666;8.114;2023-04-08T09:43:09;10.48;;;8.23;;
75537;SDS011;64121;48.666;8.114;2023-04-08T09:45:38;11.35;;;8.70;;
75537;SDS011;64121;48.666;8.114;2023-04-08T09:48:06;9.77;;;7.80;;
75537;SDS011;64121;48.666;8.114;2023-04-08T09:50:39;9.80;;;8.45;;
75537;SDS011;64121;48.666;8.114;2023-04-08T09:53:15;10.82;;;8.18;;
75537;SDS011;64121;48.666;8.114;2023-04-08T09:55:44;12.13;;;8.30;;
75537;SDS011;64121;48.666;8.114;2023-04-08T09:58:15;9.20;;;7.63;;
75537;SDS011;64121;48.666;8.114;2023-04-08T10:00:45;11.68;;;8.43;;
75537;SDS011;64121;48.666;8.114;2023-04-08T10:03:13;10.00;;;8.18;;
75537;SDS011;64121;48.666;8.114;2023-04-08T10:05:51;10.27;;;8.32;;
75537;SDS011;64121;48.666;8.114;2023-04-08T10:08:19;12.52;;;8.85;;
75537;SDS011;64121;48.666;8.114;2023-04-08T10:10:45;12.25;;;7.95;;
75537;SDS011;64121;48.666;8.114;2023-04-08T10:13:11;11.98;;;8.30;;
75537;SDS011;64121;48.666;8.114;2023-04-08T10:15:37;10.30;;;7.95;;
75537;SDS011;64121;48.666;8.114;2023-04-08T10:18:28;10.30;;;8.60;;
75537;SDS011;64121;48.666;8.114;2023-04-08T10:20:54;11.00;;;7.63;;
75537;SDS011;64121;48.666;8.114;2023-04-08T10:23:21;10.40;;;7.78;;
75537;SDS011;64121;48.666;8.114;2023-04-08T10:26:28;9.20;;;7.57;;
75537;SDS011;64121;48.666;8.114;2023-04-08T10:28:55;10.35;;;7.70;;
75537;SDS011;64121;48.666;8.114;2023-04-08T10:31:38;8.85;;;6.88;;
75537;SDS011;64121;48.666;8.114;2023-04-08T10:34:14;9.05;;;8.13;;
75537;SDS011;64121;48.666;8.114;2023-04-08T10:36:40;10.85;;;8.35;;
75537;SDS011;64121;48.666;8.114;2023-04-08T10:39:06;10.30;;;7.78;;
75537;SDS011;64121;48.666;8.114;2023-04-08T10:41:32;8.52;;;7.25;;
75537;SDS011;64121;48.666;8.114;2023-04-08T10:43:57;9.40;;;7.60;;
75537;SDS011;64121;48.666;8.114;2023-04-08T10:46:22;9.15;;;7.90;;
75537;SDS011;64121;48.666;8.114;2023-04-08T10:48:58;11.60;;;8.15;;
75537;SDS011;64121;48.666;8.114;2023-04-08T10:51:23;9.60;;;7.83;;
75537;SDS011;64121;48.666;8.114;2023-04-08T10:53:49;9.88;;;8.10;;
75537;SDS011;64121;48.666;8.114;2023-04-08T10:56:16;10.20;;;7.32;;
75537;SDS011;64121;48.666;8.114;2023-04-08T10:58:46;9.30;;;7.75;;
75537;SDS011;64121;48.666;8.114;2023-04-08T11:01:12;8.38;;;7.50;;
75537;SDS011;64121;48.666;8.114;2023-04-08T11:03:37;10.30;;;8.15;;
75537;SDS011;64121;48.666;8.114;2023-04-08T11:06:03;10.60;;;8.85;;
75537;SDS011;64121;48.666;8.114;2023-04-08T11:08:28;9.57;;;8.55;;
75537;SDS011;64121;48.666;8.114;2023-04-08T11:10:54;12.98;;;8.52;;
75537;SDS011;64121;48.666;8.114;2023-04-08T11:13:22;9.57;;;8.30;;
75537;SDS011;64121;48.666;8.114;2023-04-08T11:15:47;9.82;;;8.82;;
75537;SDS011;64121;48.666;8.114;2023-04-08T11:18:14;10.18;;;9.02;;
75537;SDS011;64121;48.666;8.114;2023-04-08T11:20:39;10.60;;;9.38;;
75537;SDS011;64121;48.666;8.114;2023-04-08T11:23:10;10.65;;;9.48;;
75537;SDS011;64121;48.666;8.114;2023-04-08T11:25:36;12.75;;;9.00;;
75537;SDS011;64121;48.666;8.114;2023-04-08T11:28:02;9.85;;;8.82;;
75537;SDS011;64121;48.666;8.114;2023-04-08T11:30:30;11.38;;;9.80;;
75537;SDS011;64121;48.666;8.114;2023-04-08T11:32:55;12.20;;;9.93;;
75537;SDS011;64121;48.666;8.114;2023-04-08T11:35:21;11.95;;;9.50;;
75537;SDS011;64121;48.666;8.114;2023-04-08T11:37:46;10.25;;;9.05;;
75537;SDS011;64121;48.666;8.114;2023-04-08T11:40:12;10.60;;;9.35;;
75537;SDS011;64121;48.666;8.114;2023-04-08T11:42:38;11.73;;;8.95;;
75537;SDS011;64121;48.666;8.114;2023-04-08T11:45:08;10.00;;;8.63;;
75537;SDS011;64121;48.666;8.114;2023-04-08T11:47:36;11.93;;;8.52;;
75537;SDS011;64121;48.666;8.114;2023-04-08T11:50:02;9.93;;;8.93;;
75537;SDS011;64121;48.666;8.114;2023-04-08T11:52:43;11.20;;;8.77;;
75537;SDS011;64121;48.666;8.114;2023-04-08T11:55:09;10.40;;;8.80;;
75537;SDS011;64121;48.666;8.114;2023-04-08T11:57:35;11.00;;;9.65;;
75537;SDS011;64121;48.666;8.114;2023-04-08T12:00:00;10.02;;;9.02;;
75537;SDS011;64121;48.666;8.114;2023-04-08T12:02:26;12.05;;;10.43;;
75537;SDS011;64121;48.666;8.114;2023-04-08T12:04:52;11.90;;;10.02;;
75537;SDS011;64121;48.666;8.114;2023-04-08T12:07:18;11.10;;;9.82;;
75537;SDS011;64121;48.666;8.114;2023-04-08T12:09:43;9.07;;;8.18;;
75537;SDS011;64121;48.666;8.114;2023-04-08T12:12:08;11.05;;;9.95;;
75537;SDS011;64121;48.666;8.114;2023-04-08T12:14:34;11.02;;;10.05;;
75537;SDS011;64121;48.666;8.114;2023-04-08T12:16:59;10.45;;;9.40;;
75537;SDS011;64121;48.666;8.114;2023-04-08T12:19:24;11.05;;;9.65;;
75537;SDS011;64121;48.666;8.114;2023-04-08T12:21:51;11.45;;;10.35;;
75537;SDS011;64121;48.666;8.114;2023-04-08T12:24:16;10.77;;;9.15;;
75537;SDS011;64121;48.666;8.114;2023-04-08T12:26:42;11.88;;;9.75;;
75537;SDS011;64121;48.666;8.114;2023-04-08T12:29:07;12.57;;;10.88;;
75537;SDS011;64121;48.666;8.114;2023-04-08T12:31:32;11.85;;;10.63;;
75537;SDS011;64121;48.666;8.114;2023-04-08T12:33:58;12.90;;;10.65;;
75537;SDS011;64121;48.666;8.114;2023-04-08T12:36:23;10.90;;;9.80;;
75537;SDS011;64121;48.666;8.114;2023-04-08T12:38:50;11.88;;;9.93;;
75537;SDS011;64121;48.666;8.114;2023-04-08T12:41:15;11.98;;;10.70;;
75537;SDS011;64121;48.666;8.114;2023-04-08T12:43:40;12.18;;;9.63;;
75537;SDS011;64121;48.666;8.114;2023-04-08T12:46:06;12.52;;;10.18;;
75537;SDS011;64121;48.666;8.114;2023-04-08T12:48:31;10.95;;;9.85;;
75537;SDS011;64121;48.666;8.114;2023-04-08T12:50:56;11.00;;;9.80;;
75537;SDS011;64121;48.666;8.114;2023-04-08T12:53:22;11.27;;;9.57;;
75537;SDS011;64121;48.666;8.114;2023-04-08T12:55:48;11.27;;;10.18;;
75537;SDS011;64121;48.666;8.114;2023-04-08T12:58:14;10.77;;;9.15;;
75537;SDS011;64121;48.666;8.114;2023-04-08T13:00:39;11.68;;;9.02;;
75537;SDS011;64121;48.666;8.114;2023-04-08T13:03:04;13.07;;;8.90;;
75537;SDS011;64121;48.666;8.114;2023-04-08T13:05:30;12.18;;;9.38;;
75537;SDS011;64121;48.666;8.114;2023-04-08T13:07:55;13.68;;;10.20;;
75537;SDS011;64121;48.666;8.114;2023-04-08T13:10:20;13.10;;;9.70;;
75537;SDS011;64121;48.666;8.114;2023-04-08T13:12:47;14.65;;;11.13;;
75537;SDS011;64121;48.666;8.114;2023-04-08T13:15:12;11.82;;;9.20;;
75537;SDS011;64121;48.666;8.114;2023-04-08T13:17:38;13.00;;;10.13;;
75537;SDS011;64121;48.666;8.114;2023-04-08T13:20:04;11.13;;;9.00;;
75537;SDS011;64121;48.666;8.114;2023-04-08T13:22:30;13.20;;;10.02;;
75537;SDS011;64121;48.666;8.114;2023-04-08T13:24:55;9.90;;;8.80;;
75537;SDS011;64121;48.666;8.114;2023-04-08T13:27:21;10.30;;;9.20;;
75537;SDS011;64121;48.666;8.114;2023-04-08T13:29:47;11.40;;;9.93;;
75537;SDS011;64121;48.666;8.114;2023-04-08T13:32:13;12.27;;;9.60;;
75537;SDS011;64121;48.666;8.114;2023-04-08T13:34:38;11.52;;;9.77;;
75537;SDS011;64121;48.666;8.114;2023-04-08T13:37:03;13.23;;;10.52;;
75537;SDS011;64121;48.666;8.114;2023-04-08T13:39:29;11.75;;;9.95;;
75537;SDS011;64121;48.666;8.114;2023-04-08T13:41:54;12.65;;;9.65;;
75537;SDS011;64121;48.666;8.114;2023-04-08T13:44:19;12.75;;;9.55;;
75537;SDS011;64121;48.666;8.114;2023-04-08T13:46:46;11.25;;;9.70;;
75537;SDS011;64121;48.666;8.114;2023-04-08T13:49:11;12.50;;;10.45;;
75537;SDS011;64121;48.666;8.114;2023-04-08T13:51:37;11.50;;;10.23;;
75537;SDS011;64121;48.666;8.114;2023-04-08T13:54:02;11.63;;;10.15;;
75537;SDS011;64121;48.666;8.114;2023-04-08T13:56:27;13.48;;;10.10;;
75537;SDS011;64121;48.666;8.114;2023-04-08T13:58:53;14.23;;;9.82;;
75537;SDS011;64121;48.666;8.114;2023-04-08T14:01:18;12.40;;;9.63;;
75537;SDS011;64121;48.666;8.114;2023-04-08T14:03:45;12.27;;;9.85;;
75537;SDS011;64121;48.666;8.114;2023-04-08T14:06:10;12.63;;;9.95;;
75537;SDS011;64121;48.666;8.114;2023-04-08T14:08:36;13.23;;;9.52;;
75537;SDS011;64121;48.666;8.114;2023-04-08T14:11:01;12.18;;;10.88;;
75537;SDS011;64121;48.666;8.114;2023-04-08T14:13:26;15.48;;;12.90;;
75537;SDS011;64121;48.666;8.114;2023-04-08T14:15:52;11.60;;;9.68;;
75537;SDS011;64121;48.666;8.114;2023-04-08T14:18:17;13.32;;;11.90;;
75537;SDS011;64121;48.666;8.114;2023-04-08T14:20:44;14.07;;;11.57;;
75537;SDS011;64121;48.666;8.114;2023-04-08T14:23:09;41.83;;;24.70;;
75537;SDS011;64121;48.666;8.114;2023-04-08T14:25:34;41.45;;;24.00;;
75537;SDS011;64121;48.666;8.114;2023-04-08T14:28:00;17.98;;;15.80;;
75537;SDS011;64121;48.666;8.114;2023-04-08T14:30:25;14.00;;;12.50;;
75537;SDS011;64121;48.666;8.114;2023-04-08T14:32:51;12.25;;;10.07;;
75537;SDS011;64121;48.666;8.114;2023-04-08T14:35:16;19.05;;;13.57;;
75537;SDS011;64121;48.666;8.114;2023-04-08T14:37:43;20.10;;;14.00;;